createdAt,value
2022-09-16T00:00:26.941Z,0
2022-09-16T00:01:27.032Z,0
2022-09-16T00:02:27.069Z,0
2022-09-16T00:03:26.958Z,0
2022-09-16T00:04:26.954Z,0
2022-09-16T00:05:26.957Z,0
2022-09-16T00:06:26.960Z,0
2022-09-16T00:07:26.964Z,0
2022-09-16T00:08:26.955Z,0
2022-09-16T00:09:26.934Z,0
2022-09-16T00:10:26.941Z,0
2022-09-16T00:11:27.051Z,0
2022-09-16T00:12:26.967Z,0
2022-09-16T00:13:26.940Z,0
2022-09-16T00:14:26.938Z,0
2022-09-16T00:15:26.934Z,0
2022-09-16T00:16:27.214Z,0
2022-09-16T00:17:26.950Z,0
2022-09-16T00:18:26.944Z,0
2022-09-16T00:19:26.935Z,0
2022-09-16T00:20:26.952Z,0
2022-09-16T00:21:26.939Z,0
2022-09-16T00:22:26.959Z,0
2022-09-16T00:23:26.951Z,0
2022-09-16T00:24:26.939Z,0
2022-09-16T00:25:26.939Z,0
2022-09-16T00:26:26.949Z,0
2022-09-16T00:27:26.969Z,0
2022-09-16T00:28:26.954Z,0
2022-09-16T00:29:26.955Z,0
2022-09-16T00:30:26.933Z,0
2022-09-16T00:31:27.020Z,0
2022-09-16T00:32:26.963Z,0
2022-09-16T00:33:26.936Z,0
2022-09-16T00:34:26.959Z,0
2022-09-16T00:35:26.952Z,0
2022-09-16T00:36:26.961Z,0
2022-09-16T00:37:27.026Z,0
2022-09-16T00:38:26.955Z,0
2022-09-16T00:39:26.956Z,0
2022-09-16T00:40:27.065Z,0
2022-09-16T00:41:26.958Z,0
2022-09-16T00:42:26.964Z,0
2022-09-16T00:43:26.955Z,0
2022-09-16T00:44:26.963Z,0
2022-09-16T00:45:26.955Z,0
2022-09-16T00:46:27.031Z,0
2022-09-16T00:47:26.965Z,0
2022-09-16T00:48:26.965Z,0
2022-09-16T00:49:26.952Z,0
2022-09-16T00:50:26.959Z,0
2022-09-16T00:51:26.948Z,0
2022-09-16T00:52:26.979Z,0
2022-09-16T00:53:26.961Z,0
2022-09-16T00:54:26.963Z,0
2022-09-16T00:55:26.961Z,0
2022-09-16T00:56:26.951Z,0
2022-09-16T00:57:26.981Z,0
2022-09-16T00:58:26.949Z,0
2022-09-16T00:59:26.962Z,0
2022-09-16T01:00:26.973Z,0
2022-09-16T01:01:26.955Z,0
2022-09-16T01:02:26.979Z,0
2022-09-16T01:03:26.942Z,0
2022-09-16T01:04:26.971Z,0
2022-09-16T01:05:26.965Z,0
2022-09-16T01:06:26.937Z,0
2022-09-16T01:07:26.965Z,0
2022-09-16T01:08:26.967Z,0
2022-09-16T01:09:26.951Z,0
2022-09-16T01:10:26.961Z,0
2022-09-16T01:11:26.954Z,0
2022-09-16T01:12:26.976Z,0
2022-09-16T01:13:26.951Z,0
2022-09-16T01:14:26.945Z,0
2022-09-16T01:15:26.951Z,0
2022-09-16T01:16:26.983Z,0
2022-09-16T01:17:26.963Z,0
2022-09-16T01:18:26.956Z,0
2022-09-16T01:19:26.949Z,0
2022-09-16T01:20:26.942Z,0
2022-09-16T01:21:26.942Z,0
2022-09-16T01:22:26.952Z,0
2022-09-16T01:23:26.932Z,0
2022-09-16T01:24:26.938Z,0
2022-09-16T01:25:26.932Z,0
2022-09-16T01:26:26.937Z,0
2022-09-16T01:27:26.950Z,0
2022-09-16T01:28:26.931Z,0
2022-09-16T01:29:26.941Z,0
2022-09-16T01:30:26.931Z,0
2022-09-16T01:31:26.986Z,0
2022-09-16T01:32:26.953Z,0
2022-09-16T01:33:26.934Z,0
2022-09-16T01:34:26.937Z,0
2022-09-16T01:35:26.950Z,0
2022-09-16T01:36:26.955Z,0
2022-09-16T01:37:26.991Z,0
2022-09-16T01:38:26.932Z,0
2022-09-16T01:39:26.930Z,0
2022-09-16T01:40:26.977Z,0
2022-09-16T01:41:26.951Z,0
2022-09-16T01:42:26.970Z,0
2022-09-16T01:43:26.959Z,0
2022-09-16T01:44:27.029Z,0
2022-09-16T01:45:26.945Z,0
2022-09-16T01:46:27.034Z,0
2022-09-16T01:47:26.959Z,0
2022-09-16T01:48:26.949Z,0
2022-09-16T01:49:26.952Z,0
2022-09-16T01:50:26.948Z,0
2022-09-16T01:51:26.944Z,0
2022-09-16T01:52:26.961Z,0
2022-09-16T01:53:26.952Z,0
2022-09-16T01:54:26.949Z,0
2022-09-16T01:55:26.943Z,0
2022-09-16T01:56:26.957Z,0
2022-09-16T01:57:26.964Z,0
2022-09-16T01:58:26.944Z,0
2022-09-16T01:59:26.954Z,0
2022-09-16T02:00:26.940Z,0
2022-09-16T02:01:27.005Z,0
2022-09-16T02:02:27.068Z,0
2022-09-16T02:03:26.956Z,0
2022-09-16T02:04:26.951Z,0
2022-09-16T02:05:26.934Z,0
2022-09-16T02:06:26.945Z,0
2022-09-16T02:07:26.966Z,0
2022-09-16T02:08:26.947Z,0
2022-09-16T02:09:26.965Z,0
2022-09-16T02:10:26.956Z,0
2022-09-16T02:11:26.952Z,0
2022-09-16T02:12:26.958Z,0
2022-09-16T02:13:26.946Z,0
2022-09-16T02:14:26.954Z,0
2022-09-16T02:15:26.928Z,0
2022-09-16T02:16:27.082Z,0
2022-09-16T02:17:26.958Z,0
2022-09-16T02:18:26.949Z,0
2022-09-16T02:19:26.944Z,0
2022-09-16T02:20:26.954Z,0
2022-09-16T02:21:26.945Z,0
2022-09-16T02:22:26.958Z,0
2022-09-16T02:23:26.949Z,0
2022-09-16T02:24:26.937Z,0
2022-09-16T02:25:26.947Z,0
2022-09-16T02:26:26.950Z,0
2022-09-16T02:27:26.967Z,0
2022-09-16T02:28:26.955Z,0
2022-09-16T02:29:26.952Z,0
2022-09-16T02:30:26.938Z,0
2022-09-16T02:31:26.976Z,0
2022-09-16T02:32:26.960Z,0
2022-09-16T02:33:26.956Z,0
2022-09-16T02:34:26.946Z,0
2022-09-16T02:35:26.935Z,0
2022-09-16T02:36:26.947Z,0
2022-09-16T02:37:26.950Z,0
2022-09-16T02:38:26.937Z,0
2022-09-16T02:39:26.948Z,0
2022-09-16T02:40:27.061Z,0
2022-09-16T02:41:26.969Z,0
2022-09-16T02:42:26.954Z,0
2022-09-16T02:43:26.934Z,0
2022-09-16T02:44:26.932Z,0
2022-09-16T02:45:26.934Z,0
2022-09-16T02:46:27.002Z,0
2022-09-16T02:47:26.946Z,0
2022-09-16T02:48:26.938Z,0
2022-09-16T02:49:26.946Z,0
2022-09-16T02:50:26.930Z,0
2022-09-16T02:51:26.950Z,0
2022-09-16T02:52:26.955Z,0
2022-09-16T02:53:26.946Z,0
2022-09-16T02:54:27.030Z,0
2022-09-16T02:55:26.946Z,0
2022-09-16T02:56:26.955Z,0
2022-09-16T02:57:26.994Z,0
2022-09-16T02:58:26.948Z,0
2022-09-16T02:59:26.953Z,0
2022-09-16T03:00:27.032Z,0
2022-09-16T03:01:27.028Z,0
2022-09-16T03:02:26.992Z,0
2022-09-16T03:03:26.954Z,0
2022-09-16T03:04:26.957Z,0
2022-09-16T03:05:26.956Z,0
2022-09-16T03:06:26.951Z,0
2022-09-16T03:07:26.955Z,0
2022-09-16T03:08:26.955Z,0
2022-09-16T03:09:26.948Z,0
2022-09-16T03:10:26.960Z,0
2022-09-16T03:11:30.238Z,0
2022-09-16T03:12:26.960Z,0
2022-09-16T03:13:26.956Z,0
2022-09-16T03:14:26.948Z,0
2022-09-16T03:15:26.956Z,0
2022-09-16T03:16:27.025Z,0
2022-09-16T03:17:26.968Z,0
2022-09-16T03:18:26.950Z,0
2022-09-16T03:19:26.957Z,0
2022-09-16T03:20:26.928Z,0
2022-09-16T03:21:26.949Z,0
2022-09-16T03:22:26.954Z,0
2022-09-16T03:23:26.958Z,0
2022-09-16T03:24:26.951Z,0
2022-09-16T03:25:26.942Z,0
2022-09-16T03:26:26.947Z,0
2022-09-16T03:27:26.957Z,0
2022-09-16T03:28:26.949Z,0
2022-09-16T03:29:26.941Z,0
2022-09-16T03:30:26.940Z,0
2022-09-16T03:31:27.062Z,0
2022-09-16T03:32:27.017Z,0
2022-09-16T03:33:26.952Z,0
2022-09-16T03:34:26.946Z,0
2022-09-16T03:35:26.933Z,0
2022-09-16T03:36:26.951Z,0
2022-09-16T03:37:26.959Z,0
2022-09-16T03:38:26.952Z,0
2022-09-16T03:39:26.951Z,0
2022-09-16T03:40:27.022Z,0
2022-09-16T03:41:26.950Z,0
2022-09-16T03:42:26.966Z,0
2022-09-16T03:43:26.943Z,0
2022-09-16T03:44:27.014Z,0
2022-09-16T03:45:26.958Z,0
2022-09-16T03:46:26.977Z,0
2022-09-16T03:47:26.979Z,0
2022-09-16T03:48:26.963Z,0
2022-09-16T03:49:26.954Z,0
2022-09-16T03:50:26.955Z,0
2022-09-16T03:51:26.947Z,0
2022-09-16T03:52:26.950Z,0
2022-09-16T03:53:26.938Z,0
2022-09-16T03:54:26.940Z,0
2022-09-16T03:55:26.929Z,0
2022-09-16T03:56:26.939Z,0
2022-09-16T03:57:26.955Z,0
2022-09-16T03:58:26.934Z,0
2022-09-16T03:59:26.929Z,0
2022-09-16T04:00:26.944Z,0
2022-09-16T04:01:26.974Z,0
2022-09-16T04:02:27.012Z,0
2022-09-16T04:03:31.183Z,0
2022-09-16T04:04:26.931Z,0
2022-09-16T04:05:26.940Z,0
2022-09-16T04:06:26.950Z,0
2022-09-16T04:07:26.945Z,0
2022-09-16T04:08:26.935Z,0
2022-09-16T04:09:26.968Z,0
2022-09-16T04:10:26.967Z,0
2022-09-16T04:11:26.954Z,0
2022-09-16T04:12:26.960Z,0
2022-09-16T04:13:26.948Z,0
2022-09-16T04:14:26.945Z,0
2022-09-16T04:15:26.950Z,0
2022-09-16T04:16:27.017Z,0
2022-09-16T04:17:26.964Z,0
2022-09-16T04:18:26.961Z,0
2022-09-16T04:19:26.947Z,0
2022-09-16T04:20:26.941Z,0
2022-09-16T04:21:26.951Z,0
2022-09-16T04:22:26.966Z,0
2022-09-16T04:23:26.955Z,0
2022-09-16T04:24:26.961Z,0
2022-09-16T04:25:26.936Z,0
2022-09-16T04:26:26.957Z,0
2022-09-16T04:27:26.966Z,0
2022-09-16T04:28:26.949Z,0
2022-09-16T04:29:26.953Z,0
2022-09-16T04:30:26.936Z,0
2022-09-16T04:31:27.019Z,0.01
2022-09-16T04:32:26.964Z,0.01
2022-09-16T04:33:26.943Z,0.01
2022-09-16T04:34:26.954Z,0.02
2022-09-16T04:35:26.935Z,0.02
2022-09-16T04:36:26.958Z,0.02
2022-09-16T04:37:26.967Z,0.02
2022-09-16T04:38:26.945Z,0.02
2022-09-16T04:39:26.956Z,0.02
2022-09-16T04:40:26.977Z,0.02
2022-09-16T04:41:26.939Z,0.03
2022-09-16T04:42:26.967Z,0.03
2022-09-16T04:43:27.010Z,0.04
2022-09-16T04:44:26.950Z,0.04
2022-09-16T04:45:26.956Z,0.04
2022-09-16T04:46:26.982Z,0.05
2022-09-16T04:47:26.964Z,0.05
2022-09-16T04:48:26.946Z,0.06
2022-09-16T04:49:26.956Z,0.06
2022-09-16T04:50:26.963Z,0.06
2022-09-16T04:51:26.950Z,0.06
2022-09-16T04:52:26.969Z,0.07
2022-09-16T04:53:26.930Z,0.07
2022-09-16T04:54:26.962Z,0.08
2022-09-16T04:55:26.936Z,0.08
2022-09-16T04:56:26.951Z,0.09
2022-09-16T04:57:26.977Z,0.09
2022-09-16T04:58:26.956Z,0.1
2022-09-16T04:59:26.954Z,0.11
2022-09-16T05:00:26.932Z,0.11
2022-09-16T05:01:27.041Z,0.11
2022-09-16T05:02:26.969Z,0.11
2022-09-16T05:03:26.995Z,0.11
2022-09-16T05:04:26.943Z,0.11
2022-09-16T05:05:26.932Z,0.12
2022-09-16T05:06:26.943Z,0.11
2022-09-16T05:07:26.976Z,0.11
2022-09-16T05:08:26.937Z,0.11
2022-09-16T05:09:26.938Z,0.11
2022-09-16T05:10:26.937Z,0.13
2022-09-16T05:11:26.934Z,0.14
2022-09-16T05:12:26.956Z,0.13
2022-09-16T05:13:26.935Z,0.09
2022-09-16T05:14:26.951Z,0.08
2022-09-16T05:15:26.937Z,0.08
2022-09-16T05:16:27.026Z,0.09
2022-09-16T05:17:46.960Z,0.09
2022-09-16T05:18:26.944Z,0.12
2022-09-16T05:19:26.939Z,0.11
2022-09-16T05:20:26.941Z,0.11
2022-09-16T05:21:26.948Z,0.08
2022-09-16T05:22:26.956Z,0.08
2022-09-16T05:23:26.958Z,0.09
2022-09-16T05:24:26.959Z,0.09
2022-09-16T05:25:26.941Z,0.09
2022-09-16T05:26:26.957Z,0.1
2022-09-16T05:27:26.984Z,0.1
2022-09-16T05:28:26.957Z,0.11
2022-09-16T05:29:26.969Z,0.1
2022-09-16T05:30:26.950Z,0.1
2022-09-16T05:31:26.951Z,0.1
2022-09-16T05:32:26.964Z,0.09
2022-09-16T05:33:26.952Z,0.08
2022-09-16T05:34:26.956Z,0.08
2022-09-16T05:35:26.936Z,0.08
2022-09-16T05:36:26.950Z,0.09
2022-09-16T05:37:26.971Z,0.08
2022-09-16T05:38:26.938Z,0.06
2022-09-16T05:39:27.224Z,0.05
2022-09-16T05:40:27.006Z,0.05
2022-09-16T05:41:26.959Z,0.05
2022-09-16T05:42:26.965Z,0.06
2022-09-16T05:43:26.970Z,0.06
2022-09-16T05:44:26.964Z,0.07
2022-09-16T05:45:32.037Z,0.07
2022-09-16T05:46:27.018Z,0.07
2022-09-16T05:47:26.967Z,0.08
2022-09-16T05:48:26.951Z,0.09
2022-09-16T05:49:26.952Z,0.11
2022-09-16T05:50:26.947Z,0.11
2022-09-16T05:51:26.966Z,0.14
2022-09-16T05:52:26.972Z,0.15
2022-09-16T05:53:26.965Z,0.18
2022-09-16T05:54:26.959Z,0.24
2022-09-16T05:55:26.945Z,0.26
2022-09-16T05:56:26.969Z,0.25
2022-09-16T05:57:26.977Z,0.2
2022-09-16T05:58:26.968Z,0.17
2022-09-16T05:59:26.968Z,0.16
2022-09-16T06:00:26.949Z,0.16
2022-09-16T06:01:26.990Z,0.15
2022-09-16T06:02:27.033Z,0.15
2022-09-16T06:03:26.957Z,0.14
2022-09-16T06:04:26.945Z,0.14
2022-09-16T06:05:26.946Z,0.13
2022-09-16T06:06:26.960Z,0.1
2022-09-16T06:07:26.971Z,0.1
2022-09-16T06:08:26.970Z,0.1
2022-09-16T06:09:26.955Z,0.18
2022-09-16T06:10:26.964Z,0.18
2022-09-16T06:11:26.950Z,0.21
2022-09-16T06:12:26.972Z,0.24
2022-09-16T06:13:26.948Z,0.24
2022-09-16T06:14:26.951Z,0.27
2022-09-16T06:15:26.953Z,0.31
2022-09-16T06:16:26.956Z,0.37
2022-09-16T06:17:26.969Z,0.43
2022-09-16T06:18:26.950Z,0.54
2022-09-16T06:19:26.959Z,0.64
2022-09-16T06:20:26.935Z,0.64
2022-09-16T06:21:26.952Z,0.55
2022-09-16T06:22:26.960Z,0.55
2022-09-16T06:23:26.972Z,0.54
2022-09-16T06:24:26.941Z,0.82
2022-09-16T06:25:26.933Z,0.62
2022-09-16T06:26:27.008Z,0.57
2022-09-16T06:27:26.952Z,0.4
2022-09-16T06:28:26.969Z,0.27
2022-09-16T06:29:26.939Z,0.3
2022-09-16T06:30:30.514Z,0.24
2022-09-16T06:31:26.987Z,0.3
2022-09-16T06:32:26.948Z,0.36
2022-09-16T06:33:26.932Z,0.39
2022-09-16T06:34:26.938Z,0.37
2022-09-16T06:35:26.931Z,0.34
2022-09-16T06:36:26.927Z,0.3
2022-09-16T06:37:26.952Z,0.22
2022-09-16T06:38:26.933Z,0.22
2022-09-16T06:39:26.939Z,0.24
2022-09-16T06:40:27.003Z,0.24
2022-09-16T06:41:26.949Z,0.26
2022-09-16T06:42:26.955Z,0.28
2022-09-16T06:43:26.943Z,0.27
2022-09-16T06:44:26.957Z,0.32
2022-09-16T06:45:26.943Z,0.4
2022-09-16T06:46:27.032Z,0.44
2022-09-16T06:47:26.962Z,0.44
2022-09-16T06:48:26.945Z,0.45
2022-09-16T06:49:26.947Z,0.45
2022-09-16T06:50:26.993Z,0.45
2022-09-16T06:51:26.941Z,0.41
2022-09-16T06:52:26.966Z,0.43
2022-09-16T06:53:26.957Z,0.44
2022-09-16T06:54:26.953Z,0.42
2022-09-16T06:55:26.950Z,0.44
2022-09-16T06:56:26.951Z,0.54
2022-09-16T06:57:27.128Z,0.67
2022-09-16T06:58:26.945Z,0.83
2022-09-16T06:59:26.950Z,1.01
2022-09-16T07:00:26.934Z,1.01
2022-09-16T07:01:27.028Z,3.01
2022-09-16T07:02:27.126Z,2.06
2022-09-16T07:03:26.951Z,1.1
2022-09-16T07:04:26.949Z,1.19
2022-09-16T07:05:26.954Z,2.33
2022-09-16T07:06:45.239Z,3.25
2022-09-16T07:07:26.958Z,1.7
2022-09-16T07:08:26.947Z,1.7
2022-09-16T07:09:26.950Z,2.33
2022-09-16T07:10:26.928Z,2.33
2022-09-16T07:11:26.941Z,2.15
2022-09-16T07:12:26.962Z,0.99
2022-09-16T07:13:26.938Z,0.88
2022-09-16T07:14:26.960Z,0.89
2022-09-16T07:15:26.939Z,0.89
2022-09-16T07:16:27.011Z,0.94
2022-09-16T07:17:26.963Z,0.94
2022-09-16T07:18:26.973Z,0.88
2022-09-16T07:19:26.947Z,0.87
2022-09-16T07:20:26.940Z,0.87
2022-09-16T07:21:26.957Z,0.46
2022-09-16T07:22:26.973Z,0.44
2022-09-16T07:23:26.946Z,0.47
2022-09-16T07:24:26.930Z,0.47
2022-09-16T07:25:26.953Z,0.61
2022-09-16T07:26:26.943Z,0.64
2022-09-16T07:27:26.962Z,0.69
2022-09-16T07:28:26.976Z,0.83
2022-09-16T07:29:26.947Z,0.91
2022-09-16T07:30:26.966Z,0.91
2022-09-16T07:31:26.958Z,1.01
2022-09-16T07:32:26.958Z,1.07
2022-09-16T07:33:26.947Z,0.96
2022-09-16T07:34:26.954Z,0.82
2022-09-16T07:35:26.961Z,0.77
2022-09-16T07:36:26.947Z,0.76
2022-09-16T07:37:26.961Z,0.76
2022-09-16T07:38:26.958Z,0.74
2022-09-16T07:39:26.936Z,0.67
2022-09-16T07:40:29.764Z,0.59
2022-09-16T07:41:26.934Z,0.51
2022-09-16T07:42:26.958Z,0.41
2022-09-16T07:43:26.935Z,0.33
2022-09-16T07:44:26.930Z,0.31
2022-09-16T07:45:26.935Z,0.29
2022-09-16T07:46:26.937Z,0.29
2022-09-16T07:47:26.952Z,0.29
2022-09-16T07:48:29.198Z,0.27
2022-09-16T07:49:26.931Z,0.28
2022-09-16T07:50:26.934Z,0.28
2022-09-16T07:51:26.936Z,0.41
2022-09-16T07:52:26.951Z,0.49
2022-09-16T07:53:29.490Z,0.62
2022-09-16T07:54:26.942Z,0.8
2022-09-16T07:55:26.941Z,0.8
2022-09-16T07:56:26.964Z,1.13
2022-09-16T07:57:26.963Z,1.36
2022-09-16T07:58:26.955Z,1.3
2022-09-16T07:59:26.955Z,1.66
2022-09-16T08:00:26.947Z,1.66
2022-09-16T08:01:27.026Z,3.37
2022-09-16T08:02:27.143Z,2.91
2022-09-16T08:03:26.944Z,2.91
2022-09-16T08:04:26.943Z,4.98
2022-09-16T08:05:26.933Z,4.98
2022-09-16T08:06:26.951Z,1.67
2022-09-16T08:07:26.970Z,1.67
2022-09-16T08:08:26.953Z,1.67
2022-09-16T08:09:37.876Z,1.91
2022-09-16T08:10:30.382Z,1.91
2022-09-16T08:11:26.949Z,5.4
2022-09-16T08:12:26.958Z,5.28
2022-09-16T08:13:26.946Z,5.44
2022-09-16T08:14:26.953Z,2.38
2022-09-16T08:15:26.942Z,2.38
2022-09-16T08:16:27.013Z,1.51
2022-09-16T08:17:28.659Z,5.26
2022-09-16T08:18:26.942Z,3.66
2022-09-16T08:19:26.945Z,5.91
2022-09-16T08:20:26.934Z,5.91
2022-09-16T08:21:26.962Z,2.03
2022-09-16T08:22:26.973Z,3.53
2022-09-16T08:23:26.979Z,1.28
2022-09-16T08:24:26.966Z,1.27
2022-09-16T08:25:26.959Z,2.74
2022-09-16T08:26:26.949Z,5.81
2022-09-16T08:27:26.960Z,5.91
2022-09-16T08:28:35.720Z,6.24
2022-09-16T08:29:26.948Z,2.67
2022-09-16T08:30:26.933Z,2.67
2022-09-16T08:31:26.980Z,6.08
2022-09-16T08:32:26.968Z,5.99
2022-09-16T08:33:26.969Z,6.17
2022-09-16T08:34:26.944Z,6.29
2022-09-16T08:35:26.944Z,2.54
2022-09-16T08:36:26.941Z,6.65
2022-09-16T08:37:26.962Z,6.95
2022-09-16T08:38:26.935Z,6.95
2022-09-16T08:39:26.953Z,2.62
2022-09-16T08:40:26.933Z,2.62
2022-09-16T08:41:26.954Z,4.44
2022-09-16T08:42:26.964Z,7.23
2022-09-16T08:43:26.950Z,5.87
2022-09-16T08:44:26.944Z,7.26
2022-09-16T08:45:27.010Z,7.26
2022-09-16T08:46:26.961Z,1.92
2022-09-16T08:47:26.997Z,2.2
2022-09-16T08:48:28.657Z,1.61
2022-09-16T08:49:26.951Z,6.77
2022-09-16T08:50:26.933Z,6.77
2022-09-16T08:51:26.956Z,6.63
2022-09-16T08:52:26.976Z,6.74
2022-09-16T08:53:26.941Z,6.74
2022-09-16T08:54:26.938Z,6.82
2022-09-16T08:55:26.949Z,6.82
2022-09-16T08:56:26.939Z,6.6
2022-09-16T08:57:26.977Z,6.66
2022-09-16T08:58:26.937Z,6.63
2022-09-16T08:59:26.935Z,6.31
2022-09-16T09:00:26.935Z,6.66
2022-09-16T09:01:27.101Z,6.72
2022-09-16T09:02:27.380Z,6.64
2022-09-16T09:03:26.931Z,6.72
2022-09-16T09:04:26.939Z,7.07
2022-09-16T09:05:26.935Z,7.07
2022-09-16T09:06:26.938Z,7.13
2022-09-16T09:07:26.962Z,2.5
2022-09-16T09:08:26.949Z,2.5
2022-09-16T09:09:26.935Z,7.59
2022-09-16T09:10:26.935Z,7.59
2022-09-16T09:11:26.950Z,1.51
2022-09-16T09:12:27.534Z,7.58
2022-09-16T09:13:28.003Z,2.17
2022-09-16T09:14:26.950Z,1.9
2022-09-16T09:15:28.359Z,1.9
2022-09-16T09:16:27.038Z,2
2022-09-16T09:17:26.965Z,7.86
2022-09-16T09:18:26.953Z,5.5
2022-09-16T09:19:26.958Z,7.5
2022-09-16T09:20:26.932Z,7.5
2022-09-16T09:21:27.528Z,7.99
2022-09-16T09:22:26.980Z,6.33
2022-09-16T09:23:26.951Z,7.89
2022-09-16T09:24:26.956Z,5.35
2022-09-16T09:25:26.958Z,8.34
2022-09-16T09:26:26.954Z,7.96
2022-09-16T09:27:26.967Z,8.09
2022-09-16T09:28:26.955Z,8.05
2022-09-16T09:29:26.966Z,8.15
2022-09-16T09:30:26.971Z,8.15
2022-09-16T09:31:27.035Z,2.32
2022-09-16T09:32:27.006Z,2.37
2022-09-16T09:33:45.478Z,1.88
2022-09-16T09:34:26.951Z,7.78
2022-09-16T09:35:26.950Z,7.67
2022-09-16T09:36:26.948Z,7.64
2022-09-16T09:37:26.966Z,4.98
2022-09-16T09:38:26.948Z,7.96
2022-09-16T09:39:26.947Z,3.2
2022-09-16T09:40:26.989Z,3.2
2022-09-16T09:41:26.946Z,8.02
2022-09-16T09:42:26.986Z,7.77
2022-09-16T09:43:26.996Z,1.56
2022-09-16T09:44:26.949Z,3.28
2022-09-16T09:45:26.946Z,7.46
2022-09-16T09:46:27.046Z,7.39
2022-09-16T09:47:26.964Z,7.53
2022-09-16T09:48:26.970Z,7.89
2022-09-16T09:49:26.960Z,4.59
2022-09-16T09:50:26.929Z,4.59
2022-09-16T09:51:26.948Z,8.35
2022-09-16T09:52:26.974Z,7.93
2022-09-16T09:53:26.974Z,1.89
2022-09-16T09:54:26.949Z,1.53
2022-09-16T09:55:26.953Z,1.47
2022-09-16T09:56:26.948Z,1.39
2022-09-16T09:57:26.963Z,1.33
2022-09-16T09:58:26.959Z,1.33
2022-09-16T09:59:26.948Z,1.3
2022-09-16T10:00:26.929Z,1.3
2022-09-16T10:01:27.136Z,1.45
2022-09-16T10:02:27.017Z,1.62
2022-09-16T10:03:26.955Z,1.73
2022-09-16T10:04:26.944Z,1.73
2022-09-16T10:05:26.938Z,1.99
2022-09-16T10:06:26.932Z,2.22
2022-09-16T10:07:26.943Z,3.66
2022-09-16T10:08:26.932Z,8.77
2022-09-16T10:09:26.928Z,8.77
2022-09-16T10:10:26.929Z,8.89
2022-09-16T10:11:26.932Z,8.47
2022-09-16T10:12:26.984Z,8.75
2022-09-16T10:13:26.932Z,6.28
2022-09-16T10:14:26.930Z,2.32
2022-09-16T10:15:26.929Z,2.5
2022-09-16T10:16:27.030Z,9.15
2022-09-16T10:17:26.947Z,2.36
2022-09-16T10:18:26.934Z,2.4
2022-09-16T10:19:26.935Z,8.46
2022-09-16T10:20:26.930Z,8.46
2022-09-16T10:21:26.929Z,8.14
2022-09-16T10:22:26.954Z,8.56
2022-09-16T10:23:29.869Z,8.62
2022-09-16T10:24:26.952Z,3.61
2022-09-16T10:25:26.945Z,8.4
2022-09-16T10:26:26.948Z,8.59
2022-09-16T10:27:26.968Z,5.44
2022-09-16T10:28:26.955Z,2.69
2022-09-16T10:29:26.964Z,2.38
2022-09-16T10:30:26.961Z,2.38
2022-09-16T10:31:29.235Z,8.11
2022-09-16T10:32:26.964Z,8
2022-09-16T10:33:26.951Z,7.83
2022-09-16T10:34:26.947Z,7.7
2022-09-16T10:35:26.947Z,7.56
2022-09-16T10:36:26.944Z,7.58
2022-09-16T10:37:26.953Z,7.7
2022-09-16T10:38:26.958Z,7.97
2022-09-16T10:39:26.966Z,8.14
2022-09-16T10:40:27.001Z,8.14
2022-09-16T10:41:26.948Z,1.21
2022-09-16T10:42:26.956Z,0.96
2022-09-16T10:43:26.946Z,0.85
2022-09-16T10:44:26.956Z,0.74
2022-09-16T10:45:26.935Z,0.74
2022-09-16T10:46:27.023Z,0.63
2022-09-16T10:47:26.968Z,0.7
2022-09-16T10:48:26.948Z,0.84
2022-09-16T10:49:26.953Z,1.01
2022-09-16T10:50:26.940Z,1.01
2022-09-16T10:51:26.950Z,1.06
2022-09-16T10:52:26.995Z,1.03
2022-09-16T10:53:32.918Z,1.08
2022-09-16T10:54:31.499Z,1.16
2022-09-16T10:55:31.470Z,7.25
2022-09-16T10:56:31.507Z,7.28
2022-09-16T10:57:31.510Z,1.54
2022-09-16T10:58:31.460Z,1.38
2022-09-16T10:59:31.466Z,1.74
2022-09-16T11:00:31.483Z,1.74
2022-09-16T11:01:32.361Z,1.58
2022-09-16T11:02:31.474Z,1.68
2022-09-16T11:03:31.456Z,2.05
2022-09-16T11:04:31.462Z,1.4
2022-09-16T11:05:31.445Z,1.4
2022-09-16T11:06:31.448Z,1.01
2022-09-16T11:07:31.474Z,1.02
2022-09-16T11:08:31.468Z,1.02
2022-09-16T11:09:31.468Z,3.97
2022-09-16T11:10:31.439Z,3.97
2022-09-16T11:12:31.465Z,5.26
2022-09-16T11:13:31.455Z,5.3
2022-09-16T11:14:31.523Z,5.73
2022-09-16T11:15:31.443Z,3.42
2022-09-16T11:16:31.604Z,1.95
2022-09-16T11:17:31.458Z,1.66
2022-09-16T11:18:31.452Z,6.91
2022-09-16T11:19:31.459Z,6.99
2022-09-16T11:20:31.453Z,6.99
2022-09-16T11:21:31.462Z,6.92
2022-09-16T11:22:31.491Z,6.98
2022-09-16T11:23:31.459Z,6.83
2022-09-16T11:24:31.459Z,6.78
2022-09-16T11:25:31.441Z,6.78
2022-09-16T11:26:31.472Z,6.78
2022-09-16T11:27:31.444Z,6.78
2022-09-16T11:28:31.461Z,6.78
2022-09-16T11:29:31.453Z,6.78
2022-09-16T11:30:31.441Z,6.78
2022-09-16T11:31:31.559Z,6.78
2022-09-16T11:32:31.490Z,6.78
2022-09-16T11:33:31.435Z,6.78
2022-09-16T11:34:31.453Z,6.78
2022-09-16T11:35:31.441Z,6.78
2022-09-16T11:36:31.433Z,6.78
2022-09-16T11:37:31.451Z,6.78
2022-09-16T11:38:31.444Z,6.78
2022-09-16T11:39:31.448Z,6.78
2022-09-16T11:40:31.510Z,6.78
2022-09-16T11:41:31.432Z,6.78
2022-09-16T11:42:31.462Z,6.78
2022-09-16T11:43:31.434Z,6.78
2022-09-16T11:44:31.446Z,6.78
2022-09-16T11:45:31.430Z,6.78
2022-09-16T11:46:31.461Z,6.78
2022-09-16T11:47:31.463Z,6.78
2022-09-16T11:48:31.444Z,6.78
2022-09-16T11:49:31.451Z,6.78
2022-09-16T11:50:31.434Z,6.78
2022-09-16T11:51:31.436Z,6.78
2022-09-16T11:52:31.678Z,6.78
2022-09-16T11:53:33.881Z,6.78
2022-09-16T11:54:31.445Z,6.78
2022-09-16T11:55:31.448Z,6.78
2022-09-16T11:56:31.432Z,6.78
2022-09-16T11:57:31.449Z,6.78
2022-09-16T11:58:31.460Z,6.78
2022-09-16T11:59:31.428Z,6.78
2022-09-16T12:00:31.430Z,6.78
2022-09-16T12:01:31.574Z,6.78
2022-09-16T12:02:31.548Z,6.78
2022-09-16T12:03:31.510Z,6.78
2022-09-16T12:04:33.703Z,6.78
2022-09-16T12:05:31.431Z,6.78
2022-09-16T12:06:31.450Z,6.78
2022-09-16T12:07:31.461Z,6.78
2022-09-16T12:08:31.456Z,6.78
2022-09-16T12:09:31.429Z,6.78
2022-09-16T12:10:31.432Z,6.78
2022-09-16T12:11:31.445Z,6.78
2022-09-16T12:12:31.449Z,6.78
2022-09-16T12:13:31.481Z,6.78
2022-09-16T12:14:31.451Z,6.78
2022-09-16T12:15:31.449Z,6.78
2022-09-16T12:16:32.592Z,6.78
2022-09-16T12:17:31.471Z,6.78
2022-09-16T12:18:31.432Z,6.78
2022-09-16T12:19:31.454Z,6.78
2022-09-16T12:20:31.431Z,6.78
2022-09-16T12:21:31.441Z,6.78
2022-09-16T12:22:31.474Z,6.78
2022-09-16T12:23:31.453Z,6.78
2022-09-16T12:24:31.424Z,6.78
2022-09-16T12:25:31.458Z,6.78
2022-09-16T12:26:31.459Z,6.78
2022-09-16T12:27:31.448Z,6.78
2022-09-16T12:28:31.502Z,6.78
2022-09-16T12:29:31.447Z,6.78
2022-09-16T12:30:31.434Z,6.78
2022-09-16T12:31:31.467Z,6.78
2022-09-16T12:32:31.460Z,6.78
2022-09-16T12:33:31.447Z,6.78
2022-09-16T12:34:31.436Z,6.78
2022-09-16T12:36:31.451Z,6.78
2022-09-16T12:37:31.599Z,6.78
2022-09-16T12:38:31.450Z,6.78
2022-09-16T12:39:31.436Z,6.78
2022-09-16T12:40:31.487Z,6.78
2022-09-16T12:41:31.425Z,6.78
2022-09-16T12:42:31.460Z,6.78
2022-09-16T12:43:31.425Z,6.78
2022-09-16T12:44:34.542Z,6.78
2022-09-16T12:45:31.431Z,6.78
2022-09-16T12:46:31.539Z,6.78
2022-09-16T12:47:31.442Z,6.78
2022-09-16T12:48:31.442Z,6.78
2022-09-16T12:49:31.444Z,6.78
2022-09-16T12:50:31.424Z,6.78
2022-09-16T12:51:31.457Z,6.78
2022-09-16T12:52:31.541Z,6.78
2022-09-16T12:53:31.437Z,6.78
2022-09-16T12:54:37.450Z,6.78
2022-09-16T12:55:31.440Z,6.78
2022-09-16T12:56:31.428Z,6.78
2022-09-16T12:57:31.605Z,6.78
2022-09-16T12:58:31.426Z,6.78
2022-09-16T12:59:31.427Z,6.78
2022-09-16T13:00:31.441Z,6.78
2022-09-16T13:01:31.589Z,6.78
2022-09-16T13:02:31.703Z,6.78
2022-09-16T13:03:31.664Z,6.78
2022-09-16T13:04:31.430Z,6.78
2022-09-16T13:05:33.334Z,6.78
2022-09-16T13:06:31.431Z,6.78
2022-09-16T13:07:31.448Z,6.78
2022-09-16T13:08:31.424Z,6.78
2022-09-16T13:09:31.433Z,6.78
2022-09-16T13:10:54.021Z,6.78
2022-09-16T13:12:41.037Z,6.78
2022-09-16T13:13:31.436Z,6.78
2022-09-16T13:14:31.755Z,6.78
2022-09-16T13:15:31.555Z,6.78
2022-09-16T13:16:31.430Z,6.78
2022-09-16T13:17:31.448Z,6.78
2022-09-16T13:18:31.426Z,6.78
2022-09-16T13:19:31.672Z,6.78
2022-09-16T13:20:31.429Z,6.78
2022-09-16T13:21:31.442Z,6.78
2022-09-16T13:22:31.442Z,6.78
2022-09-16T13:23:31.434Z,6.78
2022-09-16T13:24:31.714Z,6.78
2022-09-16T13:25:31.429Z,6.78
2022-09-16T13:26:31.678Z,6.78
2022-09-16T13:27:31.461Z,6.78
2022-09-16T13:28:31.436Z,6.78
2022-09-16T13:29:31.430Z,6.78
2022-09-16T13:30:31.446Z,6.78
2022-09-16T13:31:34.219Z,6.78
2022-09-16T13:32:31.480Z,6.78
2022-09-16T13:33:31.788Z,6.78
2022-09-16T13:34:31.609Z,6.78
2022-09-16T13:35:31.733Z,6.78
2022-09-16T13:36:31.444Z,6.78
2022-09-16T13:37:31.460Z,6.78
2022-09-16T13:38:31.429Z,6.78
2022-09-16T13:39:31.441Z,6.78
2022-09-16T13:40:31.805Z,6.78
2022-09-16T13:41:31.433Z,6.78
2022-09-16T13:42:31.835Z,6.78
2022-09-16T13:43:31.446Z,6.78
2022-09-16T13:44:31.432Z,6.78
2022-09-16T13:45:31.437Z,6.78
2022-09-16T13:46:31.599Z,6.78
2022-09-16T13:47:31.457Z,6.78
2022-09-16T13:48:31.437Z,6.78
2022-09-16T13:49:31.518Z,6.78
2022-09-16T13:50:31.431Z,6.78